Time;durP1;ratioP1;P1;durP2;ratioP2;P2;SDS_P1;SDS_P2;PMS_P1;PMS_P2;Temp;Humidity;BMP_temperature;BMP_pressure;BME280_temperature;BME280_humidity;BME280_pressure;Samples;Min_cycle;Max_cycle;Signal;HPM_P1;HPM_P2
2022/11/20 00:08:59;;;;;;;;;;;;;;;;;;;;;
2022/11/20 00:11:51;;;;;;;12.07;5.95;;;0.60;99.90;;;;;;6077774;23;20022;-94
2022/11/20 00:48:25;;;;;;;12.30;5.72;;;0.70;99.90;;;;;;6180536;23;20024;-90
2022/11/20 00:50:51;;;;;;;10.82;5.57;;;0.70;99.90;;;;;;6106986;23;20021;-89
2022/11/20 00:53:38;;;;;;;9.88;5.18;;;0.70;99.90;;;;;;6131305;23;20017;-92
2022/11/20 00:56:07;;;;;;;11.13;5.18;;;0.70;99.90;;;;;;6109131;23;20378;-89
2022/11/20 00:58:41;;;;;;;10.98;4.80;;;0.70;99.90;;;;;;6131421;23;20030;-94
2022/11/20 01:01:13;;;;;;;11.38;5.63;;;0.70;99.90;;;;;;6131711;23;20342;-88
2022/11/20 01:03:40;;;;;;;11.02;5.40;;;0.80;99.90;;;;;;6131194;23;20024;-89
2022/11/20 01:06:14;;;;;;;11.45;5.65;;;0.70;99.90;;;;;;6260173;22;20081;-89
2022/11/20 01:08:41;;;;;;;10.73;4.95;;;0.80;99.90;;;;;;6131926;23;20013;-89
2022/11/20 01:11:09;;;;;;;11.10;5.15;;;0.80;99.90;;;;;;6131910;23;20017;-95
2022/11/20 01:13:40;;;;;;;11.75;5.10;;;0.80;99.90;;;;;;6132695;23;20063;-91
2022/11/20 01:21:26;;;;;;;11.13;5.25;;;0.80;99.90;;;;;;6168950;22;20026;-88
2022/11/20 01:23:53;;;;;;;10.50;4.97;;;0.80;99.90;;;;;;6255615;22;20027;-91
2022/11/20 01:26:22;;;;;;;10.55;4.72;;;0.90;99.90;;;;;;6230442;22;20016;-93
2022/11/20 01:28:48;;;;;;;12.88;5.28;;;0.90;99.90;;;;;;6256001;22;20011;-92
2022/11/20 01:31:23;;;;;;;11.35;5.10;;;0.90;99.90;;;;;;6255914;22;20023;-91
2022/11/20 01:33:52;;;;;;;11.82;4.72;;;0.90;99.90;;;;;;6256319;22;20022;-91
2022/11/20 01:36:20;;;;;;;10.48;4.50;;;0.90;99.90;;;;;;6257292;22;20023;-91
2022/11/20 01:38:46;;;;;;;11.55;4.90;;;0.90;99.90;;;;;;6257219;22;20080;-94
2022/11/20 01:43:20;;;;;;;9.23;4.53;;;0.90;99.90;;;;;;6256485;22;20015;-91
2022/11/20 01:43:59;;;;;;;9.88;4.60;;;0.90;99.90;;;;;;6281926;22;20049;-90
2022/11/20 01:46:25;;;;;;;9.37;4.43;;;0.90;99.90;;;;;;6255940;22;20016;-91
2022/11/20 01:48:56;;;;;;;10.90;4.97;;;0.90;99.90;;;;;;6255823;22;20346;-92
2022/11/20 01:51:40;;;;;;;10.70;4.80;;;0.90;99.90;;;;;;6256083;22;20022;-91
2022/11/20 01:54:10;;;;;;;9.98;4.22;;;0.90;99.90;;;;;;6264819;22;20010;-89
2022/11/20 01:56:40;;;;;;;9.68;3.95;;;0.90;99.90;;;;;;6278737;22;20023;-93
2022/11/20 01:59:08;;;;;;;10.73;4.57;;;1.00;99.90;;;;;;6255449;22;20011;-93
2022/11/20 02:09:38;;;;;;;8.32;3.72;;;1.00;99.90;;;;;;6229213;22;20048;-89
2022/11/20 02:17:28;;;;;;;10.25;4.07;;;1.00;99.90;;;;;;6180635;23;20025;-91
2022/11/20 02:19:54;;;;;;;11.57;4.57;;;1.00;99.90;;;;;;6109573;23;20045;-96
2022/11/20 02:22:35;;;;;;;10.20;4.43;;;1.00;99.90;;;;;;6136844;23;20430;-94
2022/11/20 02:25:03;;;;;;;12.07;4.50;;;1.00;99.90;;;;;;6267408;22;20025;-91
2022/11/20 02:27:29;;;;;;;9.25;4.20;;;1.00;99.90;;;;;;6144978;22;20014;-90
2022/11/20 02:30:24;;;;;;;8.80;3.97;;;1.00;99.90;;;;;;6154734;22;20021;-90
2022/11/20 02:33:01;;;;;;;9.10;4.30;;;1.00;99.90;;;;;;6192879;22;20771;-90
2022/11/20 02:35:27;;;;;;;10.15;4.15;;;1.00;99.90;;;;;;6191796;23;20017;-90
2022/11/20 02:37:59;;;;;;;8.63;4.00;;;1.00;99.90;;;;;;6200338;23;20043;-91
2022/11/20 02:40:25;;;;;;;9.02;3.70;;;1.00;99.90;;;;;;6199688;23;20019;-92
2022/11/20 02:43:10;;;;;;;9.57;3.92;;;1.00;99.90;;;;;;6199499;23;20027;-96
2022/11/20 02:45:37;;;;;;;9.48;3.72;;;1.00;99.90;;;;;;6174332;23;20013;-91
2022/11/20 02:48:03;;;;;;;10.38;4.10;;;1.00;99.90;;;;;;6105299;23;20105;-94
2022/11/20 02:50:29;;;;;;;9.10;4.10;;;1.10;99.90;;;;;;6180089;23;20016;-91
2022/11/20 02:58:09;;;;;;;11.57;4.90;;;1.10;99.90;;;;;;6169705;23;20029;-92
2022/11/20 03:09:05;;;;;;;10.27;4.13;;;1.10;99.90;;;;;;6248835;22;20027;-91
2022/11/20 03:11:43;;;;;;;9.48;3.70;;;1.00;99.90;;;;;;6258290;22;20057;-90
2022/11/20 03:14:09;;;;;;;8.48;4.35;;;1.00;99.90;;;;;;6258022;22;20333;-89
2022/11/20 03:16:37;;;;;;;10.00;4.40;;;1.00;99.90;;;;;;6234413;22;20125;-89
2022/11/20 03:19:03;;;;;;;11.05;4.50;;;1.00;99.90;;;;;;6256395;22;20012;-89
2022/11/20 03:21:29;;;;;;;8.90;3.75;;;1.00;99.90;;;;;;6256661;22;20015;-90
2022/11/20 03:23:55;;;;;;;7.53;3.38;;;1.00;99.90;;;;;;6256377;22;20072;-90
2022/11/20 03:26:35;;;;;;;11.23;4.43;;;1.00;99.90;;;;;;6256232;22;20026;-91
2022/11/20 03:32:22;;;;;;;9.70;3.63;;;1.00;99.90;;;;;;6242673;22;20106;-92
2022/11/20 03:35:10;;;;;;;9.23;3.50;;;1.10;99.90;;;;;;6256484;22;20015;-91
2022/11/20 03:48:47;;;;;;;7.72;3.03;;;1.10;99.90;;;;;;6169926;23;20025;-91
2022/11/20 03:56:27;;;;;;;7.68;2.80;;;1.10;99.90;;;;;;6146134;23;20046;-88
2022/11/20 03:58:53;;;;;;;7.28;2.90;;;1.10;99.90;;;;;;6131874;23;20070;-89
2022/11/20 04:37:24;;;;;;;5.80;2.17;;;1.20;99.90;;;;;;6260356;22;20023;-90
2022/11/20 04:39:49;;;;;;;7.05;2.35;;;1.20;99.90;;;;;;6259815;22;20106;-91
2022/11/20 04:42:30;;;;;;;5.55;2.17;;;1.20;99.90;;;;;;6259116;22;20022;-91
2022/11/20 04:44:57;;;;;;;6.93;2.55;;;1.20;99.90;;;;;;6237353;22;20093;-94
2022/11/20 04:47:23;;;;;;;6.13;2.25;;;1.30;99.90;;;;;;6260141;22;20051;-94
2022/11/20 04:49:48;;;;;;;6.00;2.47;;;1.30;99.90;;;;;;6260294;22;20460;-93
2022/11/20 04:52:14;;;;;;;6.80;2.65;;;1.30;99.90;;;;;;6265048;22;20019;-94
2022/11/20 04:54:40;;;;;;;6.30;2.63;;;1.30;99.90;;;;;;6262602;22;20015;-93
2022/11/20 04:57:05;;;;;;;7.55;2.80;;;1.30;99.90;;;;;;6261472;22;20069;-93
2022/11/20 04:59:46;;;;;;;6.97;2.80;;;1.30;99.90;;;;;;6264494;22;20015;-95
2022/11/20 05:02:12;;;;;;;8.00;3.00;;;1.30;99.90;;;;;;6262447;22;20016;-94
2022/11/20 05:04:59;;;;;;;7.28;2.72;;;1.30;99.90;;;;;;6260393;22;20157;-92
2022/11/20 05:07:25;;;;;;;6.67;2.80;;;1.30;99.90;;;;;;6260452;22;20015;-92
2022/11/20 05:09:54;;;;;;;7.97;3.47;;;1.30;99.90;;;;;;6211908;22;20276;-91
2022/11/20 05:38:14;;;;;;;7.57;3.50;;;1.30;99.90;;;;;;6193022;22;20017;-90
2022/11/20 05:40:53;;;;;;;8.70;3.30;;;1.30;99.90;;;;;;6236810;23;20112;-94
2022/11/20 05:43:19;;;;;;;7.72;3.20;;;1.30;99.90;;;;;;6138215;23;20025;-95
2022/11/20 05:46:00;;;;;;;8.60;3.80;;;1.30;99.90;;;;;;6151751;23;20082;-95
2022/11/20 05:48:26;;;;;;;7.47;3.50;;;1.30;99.90;;;;;;6270555;22;20017;-90
2022/11/20 05:50:51;;;;;;;8.20;3.47;;;1.30;99.90;;;;;;6182606;23;20021;-89
2022/11/20 05:53:18;;;;;;;7.57;3.15;;;1.30;99.90;;;;;;6174569;23;20025;-93
2022/11/20 05:55:43;;;;;;;9.13;3.53;;;1.30;99.90;;;;;;6156753;23;20468;-91
2022/11/20 05:58:09;;;;;;;7.50;3.57;;;1.30;99.90;;;;;;6156804;23;20053;-91
2022/11/20 06:00:35;;;;;;;6.85;3.00;;;1.30;99.90;;;;;;6157264;23;20024;-90
2022/11/20 06:03:01;;;;;;;8.60;3.38;;;1.40;99.90;;;;;;6156981;23;20029;-91
2022/11/20 06:05:27;;;;;;;7.73;3.37;;;1.40;99.90;;;;;;6157336;23;20017;-91
2022/11/20 06:07:53;;;;;;;10.03;4.00;;;1.40;99.90;;;;;;6132944;23;20319;-92
2022/11/20 06:10:18;;;;;;;10.15;3.83;;;1.40;99.90;;;;;;6132501;23;20021;-91
2022/11/20 06:12:44;;;;;;;8.70;3.50;;;1.40;99.90;;;;;;6157167;23;20091;-90
2022/11/20 06:15:10;;;;;;;7.45;3.33;;;1.40;99.90;;;;;;6134611;23;20017;-94
2022/11/20 06:17:36;;;;;;;8.02;3.63;;;1.40;99.90;;;;;;6133353;23;20017;-94
2022/11/20 06:20:01;;;;;;;7.37;3.03;;;1.40;99.90;;;;;;6133348;23;20013;-94
2022/11/20 06:22:27;;;;;;;6.35;2.67;;;1.40;99.90;;;;;;6157405;23;20024;-90
2022/11/20 06:24:53;;;;;;;8.48;3.40;;;1.40;99.90;;;;;;6109824;23;20028;-94
2022/11/20 06:27:18;;;;;;;7.67;3.30;;;1.40;99.90;;;;;;6111388;23;20086;-93
2022/11/20 06:29:44;;;;;;;8.18;3.22;;;1.40;99.90;;;;;;6134550;23;20446;-90
2022/11/20 06:49:48;;;;;;;7.30;2.92;;;1.40;99.90;;;;;;6285150;22;20027;-91
2022/11/20 07:06:54;;;;;;;6.63;2.70;;;1.50;99.90;;;;;;6233685;22;20029;-92
2022/11/20 07:09:19;;;;;;;7.85;2.90;;;1.50;99.90;;;;;;6230307;23;20018;-91
2022/11/20 07:11:45;;;;;;;8.70;3.28;;;1.50;99.90;;;;;;6103788;23;20021;-91
2022/11/20 07:14:11;;;;;;;7.45;3.15;;;1.50;99.90;;;;;;6102319;23;20020;-91
2022/11/20 07:16:36;;;;;;;6.45;2.78;;;1.50;99.90;;;;;;6126696;23;20045;-91
2022/11/20 07:19:02;;;;;;;7.93;3.57;;;1.50;99.90;;;;;;6102639;23;20092;-92
2022/11/20 07:21:28;;;;;;;7.88;3.33;;;1.50;99.90;;;;;;6127134;23;20100;-92
2022/11/20 07:23:54;;;;;;;7.83;3.20;;;1.50;99.90;;;;;;6105110;23;20446;-92
2022/11/20 07:26:19;;;;;;;8.18;3.63;;;1.50;99.90;;;;;;6104931;23;20016;-91
2022/11/20 07:28:45;;;;;;;9.35;3.60;;;1.50;99.90;;;;;;6104190;23;20436;-92
2022/11/20 07:31:12;;;;;;;7.15;3.00;;;1.50;99.90;;;;;;6103909;23;20446;-93
2022/11/20 07:33:38;;;;;;;8.20;3.17;;;1.50;99.90;;;;;;6102853;23;20018;-92
2022/11/20 07:36:04;;;;;;;8.10;3.78;;;1.60;99.90;;;;;;6103305;23;20029;-91
2022/11/20 07:38:30;;;;;;;7.20;3.30;;;1.60;99.90;;;;;;6103945;23;20020;-95
2022/11/20 07:40:57;;;;;;;9.30;3.80;;;1.60;99.90;;;;;;6106093;23;20029;-93
2022/11/20 07:43:23;;;;;;;8.07;3.30;;;1.60;99.90;;;;;;6107985;23;20097;-93
2022/11/20 07:45:49;;;;;;;7.50;3.13;;;1.60;99.90;;;;;;6123350;23;20021;-88
2022/11/20 07:48:15;;;;;;;8.25;3.47;;;1.60;99.90;;;;;;6144687;23;20041;-93
2022/11/20 07:50:41;;;;;;;8.70;3.85;;;1.60;99.90;;;;;;6131770;23;20415;-91
2022/11/20 07:53:09;;;;;;;7.18;2.90;;;1.60;99.90;;;;;;6109524;23;20454;-96
2022/11/20 07:55:46;;;;;;;7.78;3.53;;;1.60;99.90;;;;;;6205556;23;20057;-90
2022/11/20 07:58:16;;;;;;;7.72;3.08;;;1.60;99.90;;;;;;6106247;23;20070;-91
2022/11/20 08:00:42;;;;;;;9.20;3.55;;;1.60;99.90;;;;;;6104598;23;20442;-91
2022/11/20 08:03:07;;;;;;;7.90;3.38;;;1.60;99.90;;;;;;6162962;23;20018;-91
2022/11/20 08:05:33;;;;;;;9.63;3.80;;;1.60;99.90;;;;;;6126630;23;20569;-91
2022/11/20 08:07:59;;;;;;;7.28;3.25;;;1.60;99.90;;;;;;6205114;23;20018;-90
2022/11/20 08:10:25;;;;;;;7.32;3.25;;;1.60;99.90;;;;;;6106032;23;20504;-93
2022/11/20 08:15:40;;;;;;;8.05;3.03;;;1.60;99.90;;;;;;6128873;23;20476;-90
2022/11/20 08:18:11;;;;;;;8.80;3.83;;;1.60;99.90;;;;;;6165711;23;20018;-91
2022/11/20 08:20:37;;;;;;;8.13;3.83;;;1.60;99.90;;;;;;6125589;23;20017;-94
2022/11/20 08:23:07;;;;;;;7.77;3.50;;;1.60;99.90;;;;;;6161232;23;20489;-89
2022/11/20 08:25:40;;;;;;;9.85;3.70;;;1.60;99.90;;;;;;6127009;23;20249;-92
2022/11/20 08:28:08;;;;;;;10.55;3.55;;;1.60;99.90;;;;;;6104038;23;20049;-95
2022/11/20 08:30:35;;;;;;;7.10;2.97;;;1.60;99.90;;;;;;6127510;23;20454;-95
2022/11/20 08:33:05;;;;;;;9.52;3.65;;;1.60;99.90;;;;;;6127600;23;20096;-91
2022/11/20 08:35:58;;;;;;;6.95;3.08;;;1.60;99.90;;;;;;6105079;23;20075;-95
2022/11/20 08:38:23;;;;;;;7.72;3.08;;;1.60;99.90;;;;;;6178458;23;20017;-91
2022/11/20 08:48:44;;;;;;;8.27;3.60;;;1.70;99.90;;;;;;6137130;23;20032;-93
2022/11/20 09:01:49;;;;;;;7.65;3.58;;;1.70;99.90;;;;;;6156496;23;20032;-91
2022/11/20 09:20:43;;;;;;;;;;;;;;;;;;;;;
2022/11/20 09:31:35;;;;;;;9.43;3.67;;;2.00;99.90;;;;;;6248051;22;20346;-88
2022/11/20 09:34:26;;;;;;;7.40;3.30;;;2.00;99.90;;;;;;6154393;23;20025;-90
2022/11/20 09:36:55;;;;;;;7.82;3.42;;;2.00;99.90;;;;;;6154262;23;20029;-89
2022/11/20 09:39:43;;;;;;;9.13;3.33;;;2.10;99.90;;;;;;6154738;22;20017;-91
2022/11/20 09:47:35;;;;;;;11.02;4.20;;;2.10;99.90;;;;;;6193040;22;20021;-90
2022/11/20 09:50:32;;;;;;;10.45;5.25;;;2.20;99.90;;;;;;6256027;22;20108;-95
2022/11/20 09:55:36;;;;;;;11.20;4.95;;;2.30;99.90;;;;;;6232746;22;20025;-90
2022/11/20 09:58:13;;;;;;;9.90;4.68;;;2.30;99.90;;;;;;6262832;22;20021;-93
2022/11/20 11:56:14;;;;;;;7.55;3.10;;;2.90;99.90;;;;;;6168005;22;20492;-93
2022/11/20 11:58:52;;;;;;;7.63;3.33;;;2.90;99.90;;;;;;6103567;23;20122;-94
2022/11/20 12:02:02;;;;;;;5.57;2.53;;;2.90;99.90;;;;;;6080349;23;20021;-94
2022/11/20 12:47:16;;;;;;;7.68;3.28;;;3.00;99.90;;;;;;6284356;22;20054;-91
2022/11/20 12:50:11;;;;;;;6.53;2.35;;;3.00;99.90;;;;;;6259881;22;20016;-96
2022/11/20 12:52:50;;;;;;;7.38;2.63;;;3.10;99.90;;;;;;6204856;22;20012;-90
2022/11/20 12:55:40;;;;;;;5.90;2.38;;;3.10;99.90;;;;;;6259280;22;20098;-92
2022/11/20 12:58:29;;;;;;;7.13;2.70;;;3.20;99.90;;;;;;6259372;22;20019;-90
2022/11/20 13:01:43;;;;;;;4.88;1.75;;;3.20;99.90;;;;;;6243300;22;20015;-91
2022/11/20 13:04:35;;;;;;;4.25;1.80;;;3.20;99.90;;;;;;6270719;22;19999;-87
2022/11/20 13:07:14;;;;;;;5.18;1.95;;;3.20;99.90;;;;;;6281735;22;20003;-89
2022/11/20 13:09:45;;;;;;;6.30;2.08;;;3.20;99.90;;;;;;6265836;22;20015;-92
2022/11/20 13:12:18;;;;;;;4.15;1.65;;;3.20;99.90;;;;;;6258333;22;20018;-95
2022/11/20 13:15:04;;;;;;;4.07;1.67;;;3.20;99.90;;;;;;6257663;22;20034;-90
2022/11/20 13:17:41;;;;;;;3.83;1.50;;;3.20;99.90;;;;;;6268786;22;20047;-92
2022/11/20 13:20:18;;;;;;;4.57;1.67;;;3.20;99.90;;;;;;6268384;22;20022;-91
2022/11/20 13:22:47;;;;;;;4.78;1.60;;;3.20;99.90;;;;;;6292706;22;20011;-92
2022/11/20 13:25:37;;;;;;;4.32;1.73;;;3.20;99.90;;;;;;6268719;22;20070;-96
2022/11/20 13:28:24;;;;;;;4.22;1.55;;;3.30;99.90;;;;;;6251425;23;20015;-95
2022/11/20 13:30:53;;;;;;;3.83;1.45;;;3.30;99.90;;;;;;6195686;23;20099;-90
2022/11/20 13:33:37;;;;;;;4.75;1.40;;;3.30;99.90;;;;;;6195914;23;20056;-94
2022/11/20 13:36:24;;;;;;;3.95;1.55;;;3.30;99.90;;;;;;6195273;23;20016;-92
2022/11/20 13:39:28;;;;;;;5.15;1.80;;;3.30;99.90;;;;;;6198349;23;20044;-91
2022/11/20 13:41:58;;;;;;;3.95;1.23;;;3.30;99.90;;;;;;6191449;23;20059;-91
2022/11/20 13:44:32;;;;;;;4.05;1.27;;;3.30;99.90;;;;;;6194484;23;20020;-94
2022/11/20 13:46:58;;;;;;;4.82;1.75;;;3.30;99.90;;;;;;6196331;23;20039;-96
2022/11/20 13:49:33;;;;;;;4.15;1.50;;;3.30;99.90;;;;;;6195794;23;20023;-91
2022/11/20 13:52:37;;;;;;;4.93;1.60;;;3.30;99.90;;;;;;6195459;23;20020;-93
2022/11/20 13:55:14;;;;;;;4.57;1.33;;;3.20;99.90;;;;;;6219431;23;20020;-94
2022/11/20 13:58:04;;;;;;;3.65;1.52;;;3.20;99.90;;;;;;6195519;23;20012;-90
2022/11/20 14:00:30;;;;;;;3.97;1.40;;;3.20;99.90;;;;;;6257893;22;20028;-93
2022/11/20 14:03:14;;;;;;;4.32;1.50;;;3.20;99.90;;;;;;6257759;22;20015;-95
2022/11/20 14:05:51;;;;;;;4.65;1.70;;;3.20;99.90;;;;;;6257517;22;20027;-90
2022/11/20 14:12:27;;;;;;;5.45;2.00;;;3.10;99.90;;;;;;6310908;22;20025;-90
2022/11/20 14:14:54;;;;;;;6.68;1.73;;;3.10;99.90;;;;;;6257430;22;20034;-91
2022/11/20 14:17:29;;;;;;;4.57;1.73;;;3.00;99.90;;;;;;6257371;22;20019;-90
2022/11/20 14:20:06;;;;;;;5.45;1.85;;;3.00;99.90;;;;;;6257653;22;20019;-90
2022/11/20 14:22:54;;;;;;;5.57;2.30;;;3.00;99.90;;;;;;6258226;22;20379;-91
2022/11/20 14:25:30;;;;;;;5.63;1.80;;;3.00;99.90;;;;;;6260360;22;20015;-91
2022/11/20 14:28:11;;;;;;;4.75;1.70;;;3.00;99.90;;;;;;6257950;22;20019;-90
2022/11/20 14:30:46;;;;;;;4.55;1.98;;;3.00;99.90;;;;;;6257730;22;20341;-95
2022/11/20 14:33:14;;;;;;;6.00;1.90;;;3.00;99.90;;;;;;6257319;22;20175;-93
2022/11/20 14:35:45;;;;;;;4.72;2.10;;;2.90;99.90;;;;;;6257770;22;20026;-96
2022/11/20 14:38:18;;;;;;;6.75;2.40;;;2.90;99.90;;;;;;6257810;22;20094;-91
2022/11/20 14:40:44;;;;;;;4.20;1.88;;;2.90;99.90;;;;;;6257665;22;20011;-94
2022/11/20 14:43:18;;;;;;;5.10;1.77;;;2.90;99.90;;;;;;6257907;22;20470;-95
2022/11/20 14:45:48;;;;;;;5.70;2.38;;;2.90;99.90;;;;;;6258951;22;20019;-96
2022/11/20 14:48:26;;;;;;;6.55;2.20;;;2.90;99.90;;;;;;6258162;22;20088;-91
2022/11/20 14:50:51;;;;;;;;;;;2.80;99.90;;;;;;6233668;22;20015;-95
2022/11/20 14:53:39;;;;;;;7.20;2.63;;;2.80;99.90;;;;;;6260393;22;19922;-94
2022/11/20 14:56:05;;;;;;;5.60;2.53;;;2.80;99.90;;;;;;6259243;22;20022;-96
2022/11/20 14:58:33;;;;;;;6.68;2.13;;;2.80;99.90;;;;;;6234199;22;20011;-90
2022/11/20 15:01:07;;;;;;;6.05;2.25;;;2.70;99.90;;;;;;6258873;22;20446;-90
2022/11/20 15:03:35;;;;;;;5.30;2.30;;;2.70;99.90;;;;;;6260599;22;20022;-93
2022/11/20 15:06:01;;;;;;;6.63;2.80;;;2.70;99.90;;;;;;6262018;22;20019;-90
2022/11/20 15:08:52;;;;;;;5.53;2.27;;;2.60;99.90;;;;;;6266621;22;20012;-88
2022/11/20 15:11:20;;;;;;;6.63;2.97;;;2.60;99.90;;;;;;6282129;22;20285;-92
2022/11/20 15:13:46;;;;;;;5.00;2.40;;;2.60;99.90;;;;;;6267686;22;20026;-90
2022/11/20 15:16:19;;;;;;;7.20;2.55;;;2.50;99.90;;;;;;6259133;22;20015;-92
2022/11/20 15:18:46;;;;;;;6.18;2.70;;;2.60;99.90;;;;;;6258558;22;20015;-91
2022/11/20 15:21:14;;;;;;;6.82;3.00;;;2.50;99.90;;;;;;6232694;22;20077;-95
2022/11/20 15:24:11;;;;;;;6.05;2.40;;;2.50;99.90;;;;;;6257544;22;20011;-90
2022/11/20 16:07:28;;;;;;;7.93;3.17;;;2.10;99.90;;;;;;6186314;22;20024;-92
2022/11/20 16:09:56;;;;;;;7.72;2.78;;;2.10;99.90;;;;;;6227751;22;20110;-94
2022/11/20 16:20:32;;;;;;;7.43;3.22;;;1.90;99.90;;;;;;6286813;22;20023;-95
2022/11/20 16:22:57;;;;;;;7.65;3.40;;;1.90;99.90;;;;;;6131866;23;20017;-95
2022/11/20 16:25:23;;;;;;;7.65;3.35;;;1.80;99.90;;;;;;6134024;23;20021;-95
2022/11/20 19:06:21;;;;;;;10.63;5.18;;;1.50;99.90;;;;;;6183481;22;20033;-94
2022/11/20 19:08:47;;;;;;;9.75;4.70;;;1.50;99.90;;;;;;6167566;23;20466;-94
2022/11/20 19:11:15;;;;;;;8.60;4.35;;;1.50;99.90;;;;;;6178128;23;20018;-93
2022/11/20 19:13:41;;;;;;;9.77;4.35;;;1.50;99.90;;;;;;6132426;23;20021;-94
2022/11/20 19:16:17;;;;;;;9.35;4.47;;;1.50;99.90;;;;;;6131778;23;20143;-93
2022/11/20 19:18:44;;;;;;;10.75;5.00;;;1.60;99.90;;;;;;6249686;22;20017;-93
2022/11/20 19:31:38;;;;;;;8.82;4.78;;;1.50;99.90;;;;;;6180642;23;20037;-94
2022/11/20 19:34:04;;;;;;;11.48;4.85;;;1.50;99.90;;;;;;6082893;23;20052;-93
2022/11/20 19:36:32;;;;;;;9.80;4.77;;;1.60;99.90;;;;;;6084395;23;20461;-93
2022/11/20 19:44:12;;;;;;;9.38;4.55;;;1.60;99.90;;;;;;6155016;23;20022;-96
2022/11/20 19:46:39;;;;;;;10.50;4.68;;;1.60;99.90;;;;;;6104681;23;20025;-94
2022/11/20 19:49:08;;;;;;;12.75;4.82;;;1.50;99.90;;;;;;6107456;23;20021;-94
2022/11/20 19:51:35;;;;;;;12.70;5.22;;;1.50;99.90;;;;;;6106072;23;20017;-93
2022/11/20 19:54:02;;;;;;;10.77;5.13;;;1.50;99.90;;;;;;6102644;23;20514;-91
2022/11/20 19:56:30;;;;;;;;;;;1.50;99.90;;;;;;6102854;23;20351;-91
2022/11/20 20:04:06;;;;;;;10.43;4.85;;;1.40;99.90;;;;;;6181526;23;20036;-91
2022/11/20 20:06:34;;;;;;;9.55;4.70;;;1.40;99.90;;;;;;6130639;23;20029;-91
2022/11/20 20:09:04;;;;;;;9.15;4.03;;;1.40;99.90;;;;;;6155193;23;20017;-96
2022/11/20 20:11:31;;;;;;;10.15;5.05;;;1.40;99.90;;;;;;6157212;23;20017;-88
2022/11/20 20:14:50;;;;;;;9.07;4.18;;;1.40;99.90;;;;;;6259819;22;20075;-87
2022/11/20 20:17:35;;;;;;;10.75;5.35;;;1.40;99.90;;;;;;6132165;23;20446;-87
2022/11/20 20:20:01;;;;;;;10.95;5.05;;;1.40;99.90;;;;;;6133465;23;20022;-89
2022/11/20 20:22:27;;;;;;;10.60;4.90;;;1.40;99.90;;;;;;6132632;23;20013;-88
2022/11/20 20:25:08;;;;;;;12.32;5.15;;;1.40;99.90;;;;;;6114705;23;20021;-85
2022/11/20 20:27:35;;;;;;;9.93;5.03;;;1.50;99.90;;;;;;6145732;23;20028;-88
2022/11/20 20:30:02;;;;;;;9.75;4.07;;;1.50;99.90;;;;;;6098200;23;20021;-87
2022/11/20 20:32:29;;;;;;;;;;;1.50;99.90;;;;;;6123824;23;20017;-88
2022/11/20 20:34:55;;;;;;;11.43;4.78;;;1.50;99.90;;;;;;6182990;22;19904;-87
2022/11/20 20:37:21;;;;;;;9.93;4.20;;;1.50;99.90;;;;;;6178192;23;20040;-86
2022/11/20 20:39:46;;;;;;;12.65;5.25;;;1.50;99.90;;;;;;6173464;23;20013;-87
2022/11/20 20:42:13;;;;;;;11.25;5.15;;;1.50;99.90;;;;;;6125840;23;20028;-85
2022/11/20 20:47:40;;;;;;;10.27;4.45;;;1.50;99.90;;;;;;6177989;23;20049;-85
2022/11/20 20:50:11;;;;;;;9.73;4.30;;;1.50;99.90;;;;;;6196232;23;20061;-88
2022/11/20 20:52:36;;;;;;;12.00;4.97;;;1.40;99.90;;;;;;6193776;23;20013;-88
2022/11/20 20:55:03;;;;;;;9.23;4.38;;;1.40;99.90;;;;;;6122677;23;20013;-86
2022/11/20 20:57:29;;;;;;;8.88;4.43;;;1.40;99.90;;;;;;6172905;23;20051;-86
2022/11/20 20:59:54;;;;;;;9.13;3.97;;;1.30;99.90;;;;;;6122739;23;20020;-87
2022/11/20 21:04:45;;;;;;;13.77;4.83;;;1.30;99.90;;;;;;6185990;23;20442;-94
2022/11/20 21:07:11;;;;;;;12.25;4.93;;;1.30;99.90;;;;;;6142368;23;20051;-84
2022/11/20 21:12:37;;;;;;;10.77;4.47;;;1.30;99.90;;;;;;6182437;23;20032;-87
2022/11/20 21:15:03;;;;;;;10.07;4.43;;;1.30;99.90;;;;;;6135119;23;20024;-87
2022/11/20 21:17:29;;;;;;;12.30;5.28;;;1.30;99.90;;;;;;6157808;23;20087;-88
2022/11/20 21:19:55;;;;;;;12.25;4.78;;;1.30;99.90;;;;;;6161836;23;20033;-87
2022/11/20 21:22:20;;;;;;;10.17;4.87;;;1.30;99.90;;;;;;6185953;23;20534;-87
2022/11/20 21:24:46;;;;;;;12.85;5.45;;;1.30;99.90;;;;;;6135850;23;20351;-86
2022/11/20 21:27:14;;;;;;;10.63;4.75;;;1.40;99.90;;;;;;6160508;23;20021;-86
2022/11/20 21:30:00;;;;;;;11.20;4.93;;;1.40;99.90;;;;;;6138684;23;20025;-86
2022/11/20 21:32:51;;;;;;;11.15;4.95;;;1.30;99.90;;;;;;6114903;23;20021;-88
2022/11/20 21:35:17;;;;;;;10.63;4.82;;;1.40;99.90;;;;;;6131198;23;20035;-91
2022/11/20 21:37:43;;;;;;;12.32;5.30;;;1.30;99.90;;;;;;6131487;23;20028;-89
2022/11/20 21:40:28;;;;;;;11.80;4.90;;;1.40;99.90;;;;;;6106899;23;20078;-95
2022/11/20 21:42:56;;;;;;;11.38;4.78;;;1.30;99.90;;;;;;6130072;23;20035;-95
2022/11/20 21:45:22;;;;;;;10.70;4.43;;;1.30;99.90;;;;;;6150932;22;20458;-93
2022/11/20 21:47:49;;;;;;;10.50;4.78;;;1.30;99.90;;;;;;6181607;23;20093;-96
2022/11/20 21:50:15;;;;;;;;;;;1.30;99.90;;;;;;6155496;23;20017;-93
2022/11/20 21:52:41;;;;;;;12.60;5.07;;;1.30;99.90;;;;;;6130683;23;19923;-87
2022/11/20 21:55:07;;;;;;;11.93;5.20;;;1.30;99.90;;;;;;6130826;23;20102;-92
2022/11/20 21:57:33;;;;;;;9.32;4.28;;;1.30;99.90;;;;;;6157986;23;20045;-96
2022/11/20 22:00:00;;;;;;;11.40;5.18;;;1.40;99.90;;;;;;6155782;23;20010;-86
2022/11/20 22:02:25;;;;;;;12.60;5.00;;;1.40;99.90;;;;;;6154142;22;20025;-88
2022/11/20 22:04:51;;;;;;;12.52;5.43;;;1.50;99.90;;;;;;6128039;23;20558;-89
2022/11/20 22:07:17;;;;;;;11.50;5.00;;;1.40;99.90;;;;;;6154471;23;20017;-93
2022/11/20 22:09:44;;;;;;;11.27;5.18;;;1.40;99.90;;;;;;6130762;23;20029;-90
2022/11/20 22:12:10;;;;;;;15.32;5.55;;;1.40;99.90;;;;;;6130484;23;20099;-96
2022/11/20 22:14:36;;;;;;;10.53;5.40;;;1.40;99.90;;;;;;6154987;23;20022;-92
2022/11/20 22:17:02;;;;;;;12.20;5.40;;;1.40;99.90;;;;;;6155777;23;20028;-94
2022/11/20 22:19:28;;;;;;;11.47;5.17;;;1.30;99.90;;;;;;6131000;23;20339;-94
2022/11/20 22:21:53;;;;;;;13.27;5.75;;;1.30;99.90;;;;;;6156552;23;20017;-93
2022/11/20 22:24:21;;;;;;;12.10;4.90;;;1.30;99.90;;;;;;6156489;23;20017;-91
2022/11/20 22:26:47;;;;;;;11.02;5.10;;;1.30;99.90;;;;;;6155944;23;20017;-87
2022/11/20 22:29:15;;;;;;;12.02;5.45;;;1.30;99.90;;;;;;6262523;22;20044;-87
2022/11/20 22:31:41;;;;;;;15.95;6.28;;;1.30;99.90;;;;;;6145405;23;20028;-84
2022/11/20 22:34:11;;;;;;;12.02;5.72;;;1.30;99.90;;;;;;6144501;23;20021;-87
2022/11/20 22:36:37;;;;;;;13.35;5.97;;;1.40;99.90;;;;;;6182970;23;20048;-88
2022/11/20 22:39:04;;;;;;;15.68;6.43;;;1.30;99.90;;;;;;6156219;23;20473;-91
2022/11/20 22:41:31;;;;;;;13.82;5.88;;;1.30;99.90;;;;;;6156271;23;20464;-92
2022/11/20 22:43:58;;;;;;;12.73;5.90;;;1.30;99.90;;;;;;6132073;23;20056;-90
2022/11/20 22:46:26;;;;;;;14.48;6.70;;;1.30;99.90;;;;;;6287568;22;20017;-91
2022/11/20 22:48:54;;;;;;;14.85;6.30;;;1.30;99.90;;;;;;6156651;23;20024;-90
2022/11/20 22:51:26;;;;;;;11.07;4.95;;;1.30;99.90;;;;;;6156763;23;20100;-91
2022/11/20 22:53:52;;;;;;;13.27;5.13;;;1.30;99.90;;;;;;6261473;22;20018;-91
2022/11/20 22:56:18;;;;;;;13.23;5.57;;;1.30;99.90;;;;;;6182808;23;20013;-91
2022/11/20 22:58:47;;;;;;;13.45;5.78;;;1.30;99.90;;;;;;6132135;23;20248;-88
2022/11/20 23:01:18;;;;;;;11.68;5.32;;;1.30;99.90;;;;;;6156828;23;20021;-93
2022/11/20 23:03:45;;;;;;;13.77;5.60;;;1.30;99.90;;;;;;6131872;23;20017;-93
2022/11/20 23:06:12;;;;;;;11.73;4.97;;;1.30;99.90;;;;;;6131904;23;20017;-92
2022/11/20 23:08:40;;;;;;;13.60;6.13;;;1.20;99.90;;;;;;6156552;23;20095;-90
2022/11/20 23:11:17;;;;;;;10.77;5.10;;;1.20;99.90;;;;;;6260823;22;20025;-87
2022/11/20 23:13:44;;;;;;;10.93;5.53;;;1.30;99.90;;;;;;6131802;23;20024;-91
2022/11/20 23:16:13;;;;;;;11.27;5.03;;;1.20;99.90;;;;;;6156468;23;20021;-94
2022/11/20 23:18:39;;;;;;;12.20;5.00;;;1.20;99.90;;;;;;6261096;22;20096;-90
2022/11/20 23:21:10;;;;;;;13.57;5.95;;;1.30;99.90;;;;;;6156401;23;20020;-95
2022/11/20 23:23:36;;;;;;;10.32;4.65;;;1.30;99.90;;;;;;6260910;22;20013;-95
2022/11/20 23:26:16;;;;;;;11.75;5.47;;;1.30;99.90;;;;;;6156260;23;20017;-88
2022/11/20 23:28:42;;;;;;;13.15;6.00;;;1.40;99.90;;;;;;6133245;23;20013;-94
2022/11/20 23:31:10;;;;;;;13.25;5.75;;;1.40;99.90;;;;;;6138477;23;20031;-93
2022/11/20 23:33:37;;;;;;;12.98;5.05;;;1.40;99.90;;;;;;6267505;22;20343;-90
2022/11/20 23:36:03;;;;;;;11.50;5.43;;;1.40;99.90;;;;;;6132619;23;20441;-96
2022/11/20 23:38:29;;;;;;;22.88;8.93;;;1.40;99.90;;;;;;6132503;23;20323;-96
2022/11/20 23:40:55;;;;;;;25.38;8.80;;;1.40;99.90;;;;;;6157212;23;20021;-90
2022/11/20 23:43:22;;;;;;;25.08;8.27;;;1.40;99.90;;;;;;6132371;23;20090;-96
2022/11/20 23:45:53;;;;;;;19.33;7.18;;;1.40;99.90;;;;;;6132219;23;20048;-94
2022/11/20 23:48:20;;;;;;;13.35;5.88;;;1.50;99.90;;;;;;6261279;22;20013;-96
2022/11/20 23:50:46;;;;;;;11.45;5.80;;;1.50;99.90;;;;;;6145095;22;20437;-92
